Time;durP1;ratioP1;P1;durP2;ratioP2;P2;SDS_P1;SDS_P2;PMS_P1;PMS_P2;Temp;Humidity;BMP_temperature;BMP_pressure;BME280_temperature;BME280_humidity;BME280_pressure;Samples;Min_cycle;Max_cycle;Signal;HPM_P1;HPM_P2
2021/07/03 00:01:03;;;;;;;9.20;2.47;;;;;;;;;;5050444;28;20025;-38
2021/07/03 00:03:28;;;;;;;3.58;1.73;;;;;;;;;;5042000;28;20143;-39
2021/07/03 00:05:54;;;;;;;2.92;2.30;;;;;;;;;;5031419;28;20613;-37
2021/07/03 00:08:19;;;;;;;3.25;1.92;;;;;;;;;;5033436;28;20025;-37
2021/07/03 00:10:44;;;;;;;3.80;2.67;;;;;;;;;;5037172;28;20072;-38
2021/07/03 00:13:10;;;;;;;5.05;1.98;;;;;;;;;;5038952;28;20053;-37
2021/07/03 00:15:36;;;;;;;3.38;1.95;;;;;;;;;;5036751;28;20022;-37
2021/07/03 00:18:01;;;;;;;9.18;2.60;;;;;;;;;;5037256;28;20029;-37
2021/07/03 00:20:27;;;;;;;5.53;2.53;;;;;;;;;;5037261;28;20025;-37
2021/07/03 00:22:53;;;;;;;14.57;3.03;;;;;;;;;;5037504;28;20061;-37
2021/07/03 00:25:18;;;;;;;3.67;2.55;;;;;;;;;;5030235;28;20026;-38
2021/07/03 00:27:44;;;;;;;8.55;7.65;;;;;;;;;;5038857;28;20049;-37
2021/07/03 00:30:09;;;;;;;4.63;2.85;;;;;;;;;;5037204;28;20029;-38
2021/07/03 00:32:35;;;;;;;4.88;3.85;;;;;;;;;;5035497;28;20025;-38
2021/07/03 00:35:00;;;;;;;3.05;2.38;;;;;;;;;;5034991;28;20040;-37
2021/07/03 00:37:26;;;;;;;8.43;2.78;;;;;;;;;;5035566;28;20074;-37
2021/07/03 00:39:51;;;;;;;2.38;1.70;;;;;;;;;;5034454;28;20032;-37
2021/07/03 00:42:17;;;;;;;3.50;2.03;;;;;;;;;;5036978;28;20022;-37
2021/07/03 00:44:42;;;;;;;6.85;2.97;;;;;;;;;;5041157;28;20492;-37
2021/07/03 00:47:09;;;;;;;3.63;2.40;;;;;;;;;;5036869;28;20025;-37
2021/07/03 00:49:35;;;;;;;4.93;2.67;;;;;;;;;;5034164;28;20028;-37
2021/07/03 00:52:00;;;;;;;1.98;1.42;;;;;;;;;;5031649;28;20025;-37
2021/07/03 00:54:28;;;;;;;10.70;2.63;;;;;;;;;;5035107;28;20024;-37
2021/07/03 00:57:02;;;;;;;2.92;1.92;;;;;;;;;;5033436;28;20136;-37
2021/07/03 00:59:41;;;;;;;7.47;2.42;;;;;;;;;;5036562;28;20032;-38
2021/07/03 01:02:07;;;;;;;3.35;2.40;;;;;;;;;;5033965;28;20111;-37
2021/07/03 01:04:33;;;;;;;9.48;2.83;;;;;;;;;;5036921;28;20022;-37
2021/07/03 01:06:58;;;;;;;3.47;2.45;;;;;;;;;;5036211;28;20720;-38
2021/07/03 01:09:24;;;;;;;4.80;2.38;;;;;;;;;;5033601;28;20506;-37
2021/07/03 01:11:50;;;;;;;3.50;2.42;;;;;;;;;;5030615;28;20116;-37
2021/07/03 01:14:15;;;;;;;3.95;2.47;;;;;;;;;;5036798;28;20021;-38
2021/07/03 01:16:44;;;;;;;5.70;2.50;;;;;;;;;;5039776;28;20032;-38
2021/07/03 01:19:10;;;;;;;5.63;3.53;;;;;;;;;;5035836;28;20029;-38
2021/07/03 01:21:35;;;;;;;6.50;3.13;;;;;;;;;;5051962;28;20032;-38
2021/07/03 01:24:01;;;;;;;5.97;2.83;;;;;;;;;;5031760;28;20025;-38
2021/07/03 01:26:26;;;;;;;6.28;2.13;;;;;;;;;;5032078;28;20017;-38
2021/07/03 01:28:51;;;;;;;8.07;3.10;;;;;;;;;;5033817;28;20043;-37
2021/07/03 01:31:16;;;;;;;10.98;2.88;;;;;;;;;;5036148;28;20095;-38
2021/07/03 01:33:43;;;;;;;12.10;3.10;;;;;;;;;;5033617;28;20043;-37
2021/07/03 01:36:09;;;;;;;4.10;2.85;;;;;;;;;;5035721;28;20133;-37
2021/07/03 01:38:34;;;;;;;18.13;2.72;;;;;;;;;;5035876;28;20100;-38
2021/07/03 01:40:59;;;;;;;8.50;2.70;;;;;;;;;;5029028;28;20029;-38
2021/07/03 01:43:26;;;;;;;7.60;3.05;;;;;;;;;;5027508;28;20026;-38
2021/07/03 01:45:52;;;;;;;2.58;1.77;;;;;;;;;;5036477;28;20028;-38
2021/07/03 01:48:24;;;;;;;3.03;2.45;;;;;;;;;;5035283;28;20024;-37
2021/07/03 01:50:49;;;;;;;2.17;1.95;;;;;;;;;;5032271;28;20455;-37
2021/07/03 01:53:14;;;;;;;4.35;2.80;;;;;;;;;;5031621;28;20063;-38
2021/07/03 01:55:39;;;;;;;3.20;2.55;;;;;;;;;;5033968;28;20053;-38
2021/07/03 01:58:05;;;;;;;7.15;2.42;;;;;;;;;;5031700;28;20029;-38
2021/07/03 02:00:30;;;;;;;4.00;2.78;;;;;;;;;;5029954;28;20065;-38
2021/07/03 02:02:55;;;;;;;5.15;3.33;;;;;;;;;;5035186;28;20064;-44
2021/07/03 02:05:21;;;;;;;4.63;3.00;;;;;;;;;;5032519;28;20131;-37
2021/07/03 02:07:46;;;;;;;5.07;2.70;;;;;;;;;;5033721;28;20021;-37
2021/07/03 02:10:12;;;;;;;5.07;2.40;;;;;;;;;;5035336;28;20020;-37
2021/07/03 02:12:37;;;;;;;6.63;2.47;;;;;;;;;;5035348;28;20102;-37
2021/07/03 02:15:03;;;;;;;7.28;3.13;;;;;;;;;;5034096;28;20096;-38
2021/07/03 02:17:29;;;;;;;7.90;3.17;;;;;;;;;;5032993;28;20029;-37
2021/07/03 02:19:54;;;;;;;4.45;2.65;;;;;;;;;;5034630;28;20032;-37
2021/07/03 02:22:19;;;;;;;3.03;2.55;;;;;;;;;;5034580;28;20124;-38
2021/07/03 02:24:45;;;;;;;3.47;2.58;;;;;;;;;;5035118;28;20017;-38
2021/07/03 02:27:10;;;;;;;10.27;1.92;;;;;;;;;;5033348;28;20394;-38
2021/07/03 02:29:35;;;;;;;4.05;2.13;;;;;;;;;;5029959;28;20021;-37
2021/07/03 02:32:00;;;;;;;6.63;2.90;;;;;;;;;;5033812;28;20025;-37
2021/07/03 02:34:26;;;;;;;4.32;2.03;;;;;;;;;;5033889;28;20013;-37
2021/07/03 02:36:51;;;;;;;7.57;3.40;;;;;;;;;;5032362;28;20643;-38
2021/07/03 02:39:16;;;;;;;6.00;3.20;;;;;;;;;;5032900;28;20100;-38
2021/07/03 02:41:42;;;;;;;3.38;2.72;;;;;;;;;;5031770;28;20025;-38
2021/07/03 02:44:07;;;;;;;4.50;3.60;;;;;;;;;;5027801;28;20060;-37
2021/07/03 02:46:32;;;;;;;8.50;3.60;;;;;;;;;;5030915;28;20410;-37
2021/07/03 02:48:57;;;;;;;4.15;3.63;;;;;;;;;;5033979;28;20018;-37
2021/07/03 02:51:23;;;;;;;2.83;2.53;;;;;;;;;;5030433;28;20052;-38
2021/07/03 02:53:48;;;;;;;8.90;2.70;;;;;;;;;;5034027;28;20480;-37
2021/07/03 02:56:13;;;;;;;3.40;2.58;;;;;;;;;;5033087;28;20053;-37
2021/07/03 02:58:39;;;;;;;8.35;4.80;;;;;;;;;;5030127;28;20017;-39
2021/07/03 03:01:04;;;;;;;4.35;2.25;;;;;;;;;;5033844;28;20234;-38
2021/07/03 03:03:30;;;;;;;5.78;3.55;;;;;;;;;;5034836;28;20432;-37
2021/07/03 03:05:56;;;;;;;11.77;4.03;;;;;;;;;;5033709;28;20045;-37
2021/07/03 03:08:21;;;;;;;7.15;3.30;;;;;;;;;;5030957;28;20433;-38
2021/07/03 03:10:47;;;;;;;14.10;3.17;;;;;;;;;;5032411;28;20028;-38
2021/07/03 03:13:12;;;;;;;4.95;2.85;;;;;;;;;;5035817;28;20342;-38
2021/07/03 03:15:38;;;;;;;6.72;3.50;;;;;;;;;;5032822;28;20025;-38
2021/07/03 03:18:03;;;;;;;5.25;3.97;;;;;;;;;;5034533;28;20024;-37
2021/07/03 03:20:28;;;;;;;4.47;3.38;;;;;;;;;;5033795;28;20025;-38
2021/07/03 03:22:53;;;;;;;5.13;3.55;;;;;;;;;;5033313;28;20029;-37
2021/07/03 03:25:19;;;;;;;7.22;2.75;;;;;;;;;;5034959;28;20029;-38
2021/07/03 03:27:44;;;;;;;3.13;2.70;;;;;;;;;;5036322;28;20100;-38
2021/07/03 03:30:10;;;;;;;6.95;3.22;;;;;;;;;;5034070;28;20476;-37
2021/07/03 03:32:36;;;;;;;3.28;2.75;;;;;;;;;;5036906;28;20021;-38
2021/07/03 03:35:01;;;;;;;4.55;2.80;;;;;;;;;;5037450;28;20584;-39
2021/07/03 03:37:27;;;;;;;4.75;3.15;;;;;;;;;;5034419;28;20022;-38
2021/07/03 03:39:52;;;;;;;6.40;3.25;;;;;;;;;;5030974;28;20029;-38
2021/07/03 03:42:17;;;;;;;2.75;2.53;;;;;;;;;;5037764;28;20021;-39
2021/07/03 03:44:43;;;;;;;5.38;3.80;;;;;;;;;;5035722;28;20022;-38
2021/07/03 03:47:08;;;;;;;9.55;3.35;;;;;;;;;;5040103;28;20141;-39
2021/07/03 03:49:33;;;;;;;3.17;2.85;;;;;;;;;;5041333;28;20017;-38
2021/07/03 03:51:59;;;;;;;5.35;2.92;;;;;;;;;;5035860;28;20266;-39
2021/07/03 03:54:24;;;;;;;4.95;2.85;;;;;;;;;;5035791;28;20025;-41
2021/07/03 03:57:21;;;;;;;7.10;3.42;;;;;;;;;;5037338;28;20033;-38
2021/07/03 03:59:34;;;;;;;8.35;3.08;;;;;;;;;;5034338;28;20084;-39
2021/07/03 04:02:01;;;;;;;2.90;2.38;;;;;;;;;;5036547;28;20105;-39
2021/07/03 04:04:26;;;;;;;5.70;4.20;;;;;;;;;;5036969;28;20025;-38
2021/07/03 04:06:51;;;;;;;7.70;2.95;;;;;;;;;;5032965;28;20056;-38
2021/07/03 04:09:16;;;;;;;4.82;2.85;;;;;;;;;;5034826;28;20621;-38
2021/07/03 04:11:42;;;;;;;13.82;2.90;;;;;;;;;;5036153;28;20028;-38
2021/07/03 04:14:07;;;;;;;4.75;3.45;;;;;;;;;;5039532;28;20123;-38
2021/07/03 04:16:32;;;;;;;7.40;3.53;;;;;;;;;;5034976;28;20556;-38
2021/07/03 04:18:58;;;;;;;4.78;3.03;;;;;;;;;;5036492;28;20025;-38
2021/07/03 04:21:23;;;;;;;9.63;3.22;;;;;;;;;;5034590;28;20481;-38
2021/07/03 04:23:48;;;;;;;5.70;4.05;;;;;;;;;;5038069;28;20025;-38
2021/07/03 04:26:13;;;;;;;4.13;3.05;;;;;;;;;;5037034;28;20020;-38
2021/07/03 04:28:39;;;;;;;6.60;4.35;;;;;;;;;;5035100;28;20053;-38
2021/07/03 04:31:04;;;;;;;5.15;3.90;;;;;;;;;;5034969;28;20028;-38
2021/07/03 04:33:29;;;;;;;4.18;3.28;;;;;;;;;;5035469;28;20504;-38
2021/07/03 04:35:55;;;;;;;9.95;4.00;;;;;;;;;;5036377;28;20415;-40
2021/07/03 04:38:20;;;;;;;8.77;4.38;;;;;;;;;;5035187;28;20641;-38
2021/07/03 04:40:45;;;;;;;5.10;3.50;;;;;;;;;;5031615;28;20550;-38
2021/07/03 04:43:11;;;;;;;3.90;3.53;;;;;;;;;;5036051;28;20661;-38
2021/07/03 04:45:36;;;;;;;7.53;2.80;;;;;;;;;;5037147;28;20045;-39
2021/07/03 04:48:01;;;;;;;3.45;3.15;;;;;;;;;;5036619;28;20385;-38
2021/07/03 04:50:27;;;;;;;3.90;3.53;;;;;;;;;;5037634;28;20358;-38
2021/07/03 04:52:52;;;;;;;4.85;3.85;;;;;;;;;;5034813;28;20064;-39
2021/07/03 04:55:17;;;;;;;5.38;4.72;;;;;;;;;;5036607;28;20017;-39
2021/07/03 04:57:42;;;;;;;7.88;7.05;;;;;;;;;;5036161;28;20410;-38
2021/07/03 05:00:08;;;;;;;20.08;13.65;;;;;;;;;;5034739;28;20116;-38
2021/07/03 05:02:33;;;;;;;10.13;9.13;;;;;;;;;;5031455;28;20021;-38
2021/07/03 05:04:59;;;;;;;10.05;8.88;;;;;;;;;;5037422;28;20059;-40
2021/07/03 05:07:24;;;;;;;17.67;10.02;;;;;;;;;;5036400;28;20029;-39
2021/07/03 05:09:50;;;;;;;10.63;7.15;;;;;;;;;;5040920;28;20373;-38
2021/07/03 05:12:15;;;;;;;8.68;6.25;;;;;;;;;;5030821;28;20048;-39
2021/07/03 05:14:40;;;;;;;10.00;5.25;;;;;;;;;;5029069;28;20049;-38
2021/07/03 05:17:06;;;;;;;5.93;5.25;;;;;;;;;;5035941;28;20445;-38
2021/07/03 05:19:31;;;;;;;15.32;6.75;;;;;;;;;;5035687;28;20119;-39
2021/07/03 05:21:56;;;;;;;9.65;6.93;;;;;;;;;;5036883;28;20097;-38
2021/07/03 05:24:22;;;;;;;6.40;5.20;;;;;;;;;;5040547;28;20079;-38
2021/07/03 05:26:47;;;;;;;7.82;5.50;;;;;;;;;;5036048;28;20017;-40
2021/07/03 05:29:12;;;;;;;15.15;6.13;;;;;;;;;;5034521;28;20448;-38
2021/07/03 05:31:37;;;;;;;8.57;7.57;;;;;;;;;;5031209;28;20025;-40
2021/07/03 05:34:03;;;;;;;11.65;9.00;;;;;;;;;;5032662;28;20019;-38
2021/07/03 05:36:28;;;;;;;15.00;8.38;;;;;;;;;;5034965;28;20100;-38
2021/07/03 05:38:55;;;;;;;10.70;8.48;;;;;;;;;;5033905;28;20053;-39
2021/07/03 05:41:20;;;;;;;16.13;8.75;;;;;;;;;;5032820;28;20039;-39
2021/07/03 05:43:45;;;;;;;7.53;6.75;;;;;;;;;;5035571;28;20025;-38
2021/07/03 05:46:11;;;;;;;13.73;7.57;;;;;;;;;;5034738;28;20028;-38
2021/07/03 05:48:39;;;;;;;7.30;6.53;;;;;;;;;;5034538;28;20025;-39
2021/07/03 05:51:05;;;;;;;11.00;6.55;;;;;;;;;;5034669;28;20071;-38
2021/07/03 05:53:30;;;;;;;6.38;4.53;;;;;;;;;;5031428;28;20455;-38
2021/07/03 05:55:55;;;;;;;21.67;18.23;;;;;;;;;;5031483;28;20053;-40
2021/07/03 05:58:20;;;;;;;20.40;17.30;;;;;;;;;;5038869;28;20029;-39
2021/07/03 06:00:46;;;;;;;15.60;12.98;;;;;;;;;;5035932;28;20191;-38
2021/07/03 06:03:11;;;;;;;12.57;11.48;;;;;;;;;;5035797;28;20029;-38
2021/07/03 06:05:36;;;;;;;15.50;13.88;;;;;;;;;;5032282;28;20807;-39
2021/07/03 06:08:02;;;;;;;13.38;11.27;;;;;;;;;;5033767;28;20108;-38
2021/07/03 06:10:27;;;;;;;14.75;8.85;;;;;;;;;;5030407;28;20018;-39
2021/07/03 06:12:53;;;;;;;25.15;22.65;;;;;;;;;;5027396;28;20017;-38
2021/07/03 06:15:18;;;;;;;21.75;15.57;;;;;;;;;;5034014;28;20024;-38
2021/07/03 06:17:43;;;;;;;14.55;11.75;;;;;;;;;;5036661;28;20044;-39
2021/07/03 06:20:09;;;;;;;11.20;10.20;;;;;;;;;;5036317;28;20039;-39
2021/07/03 06:22:35;;;;;;;8.55;7.38;;;;;;;;;;5037623;28;20075;-38
2021/07/03 06:25:00;;;;;;;12.50;6.72;;;;;;;;;;5029849;28;20026;-38
2021/07/03 06:27:26;;;;;;;12.82;4.65;;;;;;;;;;5034981;28;20033;-39
2021/07/03 06:29:51;;;;;;;11.38;3.90;;;;;;;;;;5033644;28;20427;-39
2021/07/03 06:32:16;;;;;;;5.93;4.97;;;;;;;;;;5035165;28;20647;-38
2021/07/03 06:34:42;;;;;;;14.32;6.82;;;;;;;;;;5035278;28;20059;-38
2021/07/03 06:37:07;;;;;;;8.35;5.25;;;;;;;;;;5032583;28;20397;-38
2021/07/03 06:39:33;;;;;;;6.28;5.07;;;;;;;;;;5034533;28;20043;-38
2021/07/03 06:41:58;;;;;;;8.23;7.43;;;;;;;;;;5034561;28;20018;-38
2021/07/03 06:44:23;;;;;;;14.10;11.05;;;;;;;;;;5032717;28;20449;-39
2021/07/03 06:46:49;;;;;;;9.82;8.75;;;;;;;;;;5030106;28;20021;-39
2021/07/03 06:49:14;;;;;;;13.02;11.75;;;;;;;;;;5034374;28;20477;-39
2021/07/03 06:51:39;;;;;;;12.40;10.98;;;;;;;;;;5035191;28;20040;-39
2021/07/03 06:54:05;;;;;;;12.10;10.38;;;;;;;;;;5030175;28;20021;-39
2021/07/03 06:56:30;;;;;;;41.25;11.50;;;;;;;;;;5038181;28;20149;-39
2021/07/03 06:58:56;;;;;;;13.88;10.60;;;;;;;;;;5030988;28;20369;-39
2021/07/03 07:01:21;;;;;;;12.15;8.70;;;;;;;;;;5034675;28;20041;-39
2021/07/03 07:03:46;;;;;;;9.57;8.63;;;;;;;;;;5035503;28;20017;-44
2021/07/03 07:06:12;;;;;;;15.90;13.20;;;;;;;;;;5032123;28;20362;-43
2021/07/03 07:08:37;;;;;;;12.98;11.00;;;;;;;;;;5033903;28;20021;-44
2021/07/03 07:11:03;;;;;;;21.98;10.23;;;;;;;;;;5036106;28;20037;-42
2021/07/03 07:13:28;;;;;;;11.77;10.50;;;;;;;;;;5032481;28;20021;-43
2021/07/03 07:15:54;;;;;;;14.70;11.73;;;;;;;;;;5030562;28;20026;-50
2021/07/03 07:18:19;;;;;;;15.48;9.60;;;;;;;;;;5034262;28;20025;-45
2021/07/03 07:20:44;;;;;;;12.73;7.50;;;;;;;;;;5032741;28;20515;-46
2021/07/03 07:23:10;;;;;;;16.88;7.47;;;;;;;;;;5034228;28;20022;-43
2021/07/03 07:25:35;;;;;;;8.02;6.43;;;;;;;;;;5030265;28;20028;-43
2021/07/03 07:28:00;;;;;;;6.70;6.07;;;;;;;;;;5034980;28;20778;-43
2021/07/03 07:30:26;;;;;;;8.60;5.35;;;;;;;;;;5029823;28;20021;-43
2021/07/03 07:32:51;;;;;;;11.80;9.18;;;;;;;;;;5032298;28;20021;-44
2021/07/03 07:35:17;;;;;;;10.63;6.82;;;;;;;;;;5032731;28;20025;-44
2021/07/03 07:37:43;;;;;;;17.10;8.70;;;;;;;;;;5032529;28;20021;-44
2021/07/03 07:40:09;;;;;;;5.63;4.82;;;;;;;;;;5032131;28;20154;-44
2021/07/03 07:42:35;;;;;;;2.55;2.35;;;;;;;;;;5033976;28;20174;-43
2021/07/03 07:45:00;;;;;;;7.55;3.45;;;;;;;;;;5035145;28;20072;-42
2021/07/03 07:47:25;;;;;;;13.52;4.55;;;;;;;;;;5030783;28;20074;-42
2021/07/03 07:49:51;;;;;;;6.90;3.88;;;;;;;;;;5030080;28;20028;-43
2021/07/03 07:52:16;;;;;;;4.13;2.75;;;;;;;;;;5034520;28;20017;-43
2021/07/03 07:54:41;;;;;;;3.45;2.58;;;;;;;;;;5035767;28;20871;-42
2021/07/03 07:57:07;;;;;;;4.43;3.05;;;;;;;;;;5030670;28;20018;-44
2021/07/03 07:59:32;;;;;;;14.98;3.47;;;;;;;;;;5028885;28;20017;-41
2021/07/03 08:01:57;;;;;;;6.32;5.35;;;;;;;;;;5033530;28;20028;-43
2021/07/03 08:04:23;;;;;;;4.13;3.05;;;;;;;;;;5036674;28;20028;-42
2021/07/03 08:06:48;;;;;;;4.43;2.55;;;;;;;;;;5031662;28;20167;-41
2021/07/03 08:09:13;;;;;;;4.28;2.17;;;;;;;;;;5032496;28;20021;-45
2021/07/03 08:11:39;;;;;;;5.50;2.67;;;;;;;;;;5030865;28;20503;-42
2021/07/03 08:14:04;;;;;;;3.35;2.08;;;;;;;;;;5034706;28;20104;-43
2021/07/03 08:16:29;;;;;;;1.83;1.40;;;;;;;;;;5034397;28;20535;-45
2021/07/03 08:18:55;;;;;;;5.90;3.33;;;;;;;;;;5032623;28;20116;-42
2021/07/03 08:21:20;;;;;;;3.17;1.55;;;;;;;;;;5034985;28;20123;-36
2021/07/03 08:23:45;;;;;;;2.88;1.30;;;;;;;;;;5034169;28;20021;-37
2021/07/03 08:26:11;;;;;;;10.10;3.45;;;;;;;;;;5041245;28;20028;-37
2021/07/03 08:28:36;;;;;;;3.72;3.00;;;;;;;;;;5038978;28;20033;-37
2021/07/03 08:31:02;;;;;;;6.68;2.90;;;;;;;;;;5035838;28;20033;-37
2021/07/03 08:33:27;;;;;;;6.63;3.63;;;;;;;;;;5032794;28;20448;-37
2021/07/03 08:35:53;;;;;;;4.15;2.70;;;;;;;;;;5034326;28;20025;-37
2021/07/03 08:38:18;;;;;;;3.50;2.20;;;;;;;;;;5037916;28;20021;-40
2021/07/03 08:40:43;;;;;;;3.50;2.35;;;;;;;;;;5035451;28;20460;-39
2021/07/03 08:43:09;;;;;;;4.28;1.83;;;;;;;;;;5039180;28;20111;-39
2021/07/03 08:45:34;;;;;;;8.02;2.88;;;;;;;;;;5035583;28;20112;-39
2021/07/03 08:47:59;;;;;;;13.68;12.23;;;;;;;;;;5032820;28;20018;-40
2021/07/03 08:50:25;;;;;;;1.88;1.48;;;;;;;;;;5037367;28;20051;-41
2021/07/03 08:52:50;;;;;;;3.03;1.92;;;;;;;;;;5039674;28;20766;-37
2021/07/03 08:55:20;;;;;;;2.75;2.00;;;;;;;;;;5036121;28;20610;-37
2021/07/03 08:57:46;;;;;;;9.07;2.23;;;;;;;;;;5039762;28;20022;-37
2021/07/03 09:00:13;;;;;;;5.45;1.75;;;;;;;;;;5034824;28;20025;-38
2021/07/03 09:02:42;;;;;;;6.60;3.65;;;;;;;;;;5031891;28;20029;-37
2021/07/03 09:05:24;;;;;;;4.60;1.48;;;;;;;;;;5037543;28;20032;-37
2021/07/03 09:07:50;;;;;;;2.03;1.20;;;;;;;;;;5036310;28;20496;-37
2021/07/03 09:10:20;;;;;;;3.08;1.70;;;;;;;;;;5034350;28;20025;-37
2021/07/03 09:12:48;;;;;;;8.82;3.72;;;;;;;;;;5038607;28;20053;-37
2021/07/03 09:15:13;;;;;;;4.93;3.83;;;;;;;;;;5051080;28;20405;-37
2021/07/03 09:18:05;;;;;;;4.60;2.47;;;;;;;;;;5035012;28;20082;-37
2021/07/03 09:20:32;;;;;;;8.25;3.63;;;;;;;;;;5033023;28;20055;-37
2021/07/03 09:22:58;;;;;;;8.88;5.03;;;;;;;;;;5034701;28;20078;-37
2021/07/03 09:25:24;;;;;;;4.10;1.95;;;;;;;;;;5031735;28;20053;-38
2021/07/03 09:27:49;;;;;;;2.70;2.50;;;;;;;;;;5035375;28;20155;-37
2021/07/03 09:30:15;;;;;;;5.15;2.85;;;;;;;;;;5032228;28;20460;-38
2021/07/03 09:32:47;;;;;;;12.07;3.88;;;;;;;;;;5036127;28;20021;-37
2021/07/03 09:35:13;;;;;;;4.10;2.63;;;;;;;;;;5029762;28;20017;-36
2021/07/03 09:37:38;;;;;;;5.00;2.92;;;;;;;;;;5033780;28;20086;-37
2021/07/03 09:40:07;;;;;;;4.43;1.90;;;;;;;;;;5035677;28;20017;-37
2021/07/03 09:42:36;;;;;;;2.65;1.52;;;;;;;;;;5031470;28;20478;-37
2021/07/03 09:45:02;;;;;;;2.67;1.65;;;;;;;;;;5033556;28;20036;-37
2021/07/03 09:47:27;;;;;;;4.22;3.08;;;;;;;;;;5032132;28;20017;-38
2021/07/03 09:50:09;;;;;;;15.32;3.05;;;;;;;;;;5033601;28;20056;-37
2021/07/03 09:52:36;;;;;;;4.45;2.95;;;;;;;;;;5045369;28;20014;-36
2021/07/03 09:55:02;;;;;;;4.20;2.92;;;;;;;;;;5033126;28;20036;-37
2021/07/03 09:57:28;;;;;;;4.78;2.40;;;;;;;;;;5033020;28;20028;-46
2021/07/03 09:59:53;;;;;;;6.57;4.20;;;;;;;;;;5032673;28;20033;-45
2021/07/03 10:02:19;;;;;;;4.93;4.18;;;;;;;;;;5036067;28;20528;-46
2021/07/03 10:04:44;;;;;;;3.97;2.85;;;;;;;;;;5037450;28;20044;-46
2021/07/03 10:07:21;;;;;;;5.10;3.55;;;;;;;;;;5031639;28;20051;-47
2021/07/03 10:10:03;;;;;;;8.18;3.33;;;;;;;;;;5028438;28;20020;-49
2021/07/03 10:12:35;;;;;;;7.45;3.95;;;;;;;;;;5032769;28;20615;-50
2021/07/03 10:15:00;;;;;;;12.90;5.40;;;;;;;;;;5032346;28;20029;-47
2021/07/03 10:17:26;;;;;;;19.25;5.32;;;;;;;;;;5031221;28;20163;-44
2021/07/03 10:19:52;;;;;;;8.38;5.03;;;;;;;;;;5030743;28;20033;-43
2021/07/03 10:22:20;;;;;;;9.43;3.88;;;;;;;;;;5032830;28;20052;-42
2021/07/03 10:24:48;;;;;;;7.32;3.17;;;;;;;;;;5030722;28;20021;-44
2021/07/03 10:27:18;;;;;;;3.90;2.83;;;;;;;;;;5035325;28;20064;-44
2021/07/03 10:29:45;;;;;;;6.77;2.43;;;;;;;;;;5031027;28;20025;-42
2021/07/03 10:32:27;;;;;;;7.30;1.85;;;;;;;;;;5034188;28;20053;-42
2021/07/03 10:34:52;;;;;;;7.95;3.38;;;;;;;;;;5030971;28;20025;-42
2021/07/03 10:37:29;;;;;;;1.75;1.30;;;;;;;;;;5030078;28;20022;-43
2021/07/03 10:39:54;;;;;;;2.53;1.52;;;;;;;;;;5036375;28;20100;-42
2021/07/03 10:42:29;;;;;;;1.85;1.10;;;;;;;;;;5034690;28;20116;-43
2021/07/03 10:45:05;;;;;;;5.45;2.33;;;;;;;;;;5032513;28;20080;-45
2021/07/03 10:47:32;;;;;;;6.38;3.63;;;;;;;;;;5029701;28;20026;-41
2021/07/03 10:49:57;;;;;;;6.90;3.40;;;;;;;;;;5031235;28;20021;-41
2021/07/03 10:52:22;;;;;;;4.18;3.78;;;;;;;;;;5034107;28;20020;-41
2021/07/03 10:54:47;;;;;;;2.55;1.70;;;;;;;;;;5031495;28;20009;-40
2021/07/03 10:57:23;;;;;;;7.57;2.17;;;;;;;;;;5032954;28;20472;-44
2021/07/03 10:59:59;;;;;;;5.32;2.72;;;;;;;;;;5028131;28;20061;-45
2021/07/03 11:02:28;;;;;;;2.60;2.25;;;;;;;;;;5033868;28;20404;-43
2021/07/03 11:04:54;;;;;;;3.13;2.30;;;;;;;;;;5032809;28;20441;-44
2021/07/03 11:07:30;;;;;;;3.78;1.88;;;;;;;;;;5031507;28;20017;-43
2021/07/03 11:10:15;;;;;;;8.60;2.22;;;;;;;;;;5032985;28;20026;-42
2021/07/03 11:12:47;;;;;;;4.18;1.92;;;;;;;;;;5029391;28;20025;-43
2021/07/03 11:15:13;;;;;;;1.58;1.08;;;;;;;;;;5031234;28;20026;-44
2021/07/03 11:17:38;;;;;;;5.20;3.60;;;;;;;;;;5030728;28;20124;-42
2021/07/03 11:20:04;;;;;;;12.35;3.30;;;;;;;;;;5032247;28;20412;-43
2021/07/03 11:22:31;;;;;;;4.00;2.30;;;;;;;;;;5030503;28;20021;-43
2021/07/03 11:24:57;;;;;;;6.30;2.88;;;;;;;;;;5031522;28;20029;-45
2021/07/03 11:27:26;;;;;;;2.95;1.70;;;;;;;;;;5033397;28;20041;-42
2021/07/03 11:29:52;;;;;;;4.93;3.28;;;;;;;;;;5035074;28;20111;-44
2021/07/03 11:32:17;;;;;;;8.50;2.97;;;;;;;;;;5034502;28;20521;-44
2021/07/03 11:35:09;;;;;;;6.10;2.45;;;;;;;;;;5031629;28;20017;-42
2021/07/03 11:37:35;;;;;;;8.50;2.63;;;;;;;;;;5034394;28;20499;-42
2021/07/03 11:40:06;;;;;;;8.40;3.97;;;;;;;;;;5030336;28;20057;-42
2021/07/03 11:42:32;;;;;;;3.30;1.65;;;;;;;;;;5028240;28;20515;-43
2021/07/03 11:44:58;;;;;;;8.30;3.13;;;;;;;;;;5035994;28;20026;-42
2021/07/03 11:47:39;;;;;;;6.97;2.97;;;;;;;;;;5032267;28;20053;-42
2021/07/03 11:50:04;;;;;;;;;;;;;;;;;;5036829;28;20047;-44
2021/07/03 11:52:39;;;;;;;6.73;3.17;;;;;;;;;;5034275;28;20384;-42
2021/07/03 11:55:05;;;;;;;4.05;2.75;;;;;;;;;;5034880;28;20484;-43
2021/07/03 11:57:40;;;;;;;2.90;1.35;;;;;;;;;;5035771;28;20053;-42
2021/07/03 12:00:06;;;;;;;10.70;4.75;;;;;;;;;;5034415;28;20029;-43
2021/07/03 12:02:32;;;;;;;5.70;2.92;;;;;;;;;;5037474;28;20436;-43
2021/07/03 12:04:57;;;;;;;2.85;1.42;;;;;;;;;;5026320;28;20029;-44
2021/07/03 12:07:22;;;;;;;3.75;1.83;;;;;;;;;;5035916;28;20032;-42
2021/07/03 12:09:48;;;;;;;3.15;1.50;;;;;;;;;;5031673;28;20021;-42
2021/07/03 12:12:13;;;;;;;4.88;3.45;;;;;;;;;;5036880;28;20022;-42
2021/07/03 12:14:38;;;;;;;5.07;1.90;;;;;;;;;;5037386;28;20053;-44
2021/07/03 12:17:04;;;;;;;11.40;2.45;;;;;;;;;;5040811;28;20025;-42
2021/07/03 12:19:29;;;;;;;9.60;2.70;;;;;;;;;;5035607;28;20030;-43
2021/07/03 12:22:05;;;;;;;4.53;3.08;;;;;;;;;;5035584;28;20033;-45
2021/07/03 12:24:30;;;;;;;5.00;2.50;;;;;;;;;;5038720;28;20033;-45
2021/07/03 12:26:57;;;;;;;4.13;2.33;;;;;;;;;;5037106;28;20017;-42
2021/07/03 12:29:30;;;;;;;9.95;2.35;;;;;;;;;;5033135;28;20444;-42
2021/07/03 12:32:05;;;;;;;5.88;2.05;;;;;;;;;;5034498;28;20067;-44
2021/07/03 12:34:35;;;;;;;4.28;1.27;;;;;;;;;;5038282;28;20099;-44
2021/07/03 12:37:01;;;;;;;8.07;2.35;;;;;;;;;;5036598;28;20041;-44
2021/07/03 12:39:27;;;;;;;2.30;1.52;;;;;;;;;;5038128;28;20033;-45
2021/07/03 12:41:53;;;;;;;8.48;4.10;;;;;;;;;;5040198;28;20027;-42
2021/07/03 12:44:19;;;;;;;4.03;1.85;;;;;;;;;;5052730;28;20100;-46
2021/07/03 12:46:44;;;;;;;5.55;2.22;;;;;;;;;;5036344;28;20159;-44
2021/07/03 12:49:10;;;;;;;2.30;1.38;;;;;;;;;;5036872;28;20021;-45
2021/07/03 12:51:38;;;;;;;4.57;2.05;;;;;;;;;;5035291;28;20021;-45
2021/07/03 12:54:05;;;;;;;8.43;1.33;;;;;;;;;;5031869;28;20022;-45
2021/07/03 12:56:30;;;;;;;4.60;1.95;;;;;;;;;;5031304;28;20033;-43
2021/07/03 12:59:05;;;;;;;6.00;2.33;;;;;;;;;;5033892;28;20014;-42
2021/07/03 13:01:35;;;;;;;6.03;2.40;;;;;;;;;;5027720;28;20136;-44
2021/07/03 13:04:01;;;;;;;6.00;2.15;;;;;;;;;;5029397;28;20044;-43
2021/07/03 13:06:27;;;;;;;2.75;2.03;;;;;;;;;;5036889;28;20511;-44
2021/07/03 13:08:53;;;;;;;8.63;1.33;;;;;;;;;;5037731;28;20017;-42
2021/07/03 13:11:18;;;;;;;6.72;3.53;;;;;;;;;;5036223;28;20427;-43
2021/07/03 13:13:44;;;;;;;5.88;1.83;;;;;;;;;;5038400;28;20017;-42
2021/07/03 13:16:09;;;;;;;8.70;2.78;;;;;;;;;;5038546;28;20025;-43
2021/07/03 13:18:35;;;;;;;4.25;2.72;;;;;;;;;;5036534;28;20350;-43
2021/07/03 13:21:00;;;;;;;4.78;2.10;;;;;;;;;;5032375;28;20056;-43
2021/07/03 13:23:27;;;;;;;8.85;2.35;;;;;;;;;;5034080;28;20037;-43
2021/07/03 13:25:52;;;;;;;5.50;1.88;;;;;;;;;;5032873;28;20099;-41
2021/07/03 13:28:18;;;;;;;9.52;2.85;;;;;;;;;;5036585;28;20629;-43
2021/07/03 13:30:43;;;;;;;1.48;0.93;;;;;;;;;;5034251;28;20429;-44
2021/07/03 13:33:08;;;;;;;4.00;1.48;;;;;;;;;;5034462;28;20053;-45
2021/07/03 13:35:34;;;;;;;11.25;4.47;;;;;;;;;;5032393;28;20006;-43
2021/07/03 13:37:59;;;;;;;3.50;2.17;;;;;;;;;;5029909;28;20393;-43
2021/07/03 13:40:24;;;;;;;4.68;3.05;;;;;;;;;;5040961;28;20104;-45
2021/07/03 13:42:50;;;;;;;6.70;3.47;;;;;;;;;;5034095;28;20013;-42
2021/07/03 13:45:15;;;;;;;4.18;2.35;;;;;;;;;;5035367;28;20052;-43
2021/07/03 13:47:41;;;;;;;6.60;3.00;;;;;;;;;;5035637;28;20578;-42
2021/07/03 13:50:07;;;;;;;4.95;3.22;;;;;;;;;;5036401;28;20508;-44
2021/07/03 13:52:32;;;;;;;3.25;1.77;;;;;;;;;;5034808;28;20029;-43
2021/07/03 13:54:58;;;;;;;15.80;3.95;;;;;;;;;;5037616;28;20476;-44
2021/07/03 13:57:23;;;;;;;5.82;2.83;;;;;;;;;;5037350;28;20420;-42
2021/07/03 13:59:49;;;;;;;4.75;1.90;;;;;;;;;;5030780;28;20057;-43
2021/07/03 14:02:14;;;;;;;5.30;3.45;;;;;;;;;;5032422;28;20037;-43
2021/07/03 14:04:39;;;;;;;14.05;3.58;;;;;;;;;;5030992;28;20105;-43
2021/07/03 14:07:05;;;;;;;2.30;1.42;;;;;;;;;;5025136;28;20591;-43
2021/07/03 14:09:30;;;;;;;3.22;2.08;;;;;;;;;;5034668;28;20021;-43
2021/07/03 14:11:56;;;;;;;14.27;3.20;;;;;;;;;;5029995;28;20064;-43
2021/07/03 14:14:21;;;;;;;3.83;2.50;;;;;;;;;;5037222;28;20078;-45
2021/07/03 14:16:46;;;;;;;14.50;1.90;;;;;;;;;;5035440;28;20029;-42
2021/07/03 14:19:12;;;;;;;8.20;3.53;;;;;;;;;;5035910;28;20053;-44
2021/07/03 14:21:37;;;;;;;3.95;2.58;;;;;;;;;;5034335;28;20660;-43
2021/07/03 14:24:03;;;;;;;7.90;3.47;;;;;;;;;;5031373;28;20032;-43
2021/07/03 14:26:31;;;;;;;2.58;1.92;;;;;;;;;;5034136;28;20052;-43
2021/07/03 14:28:58;;;;;;;7.72;2.10;;;;;;;;;;5030795;28;20021;-42
2021/07/03 14:31:24;;;;;;;4.20;2.05;;;;;;;;;;5030366;28;20017;-42
2021/07/03 14:33:49;;;;;;;7.00;3.60;;;;;;;;;;5031902;28;20033;-42
2021/07/03 14:36:14;;;;;;;2.70;1.90;;;;;;;;;;5032990;28;20026;-43